Time;durP1;ratioP1;P1;durP2;ratioP2;P2;SDS_P1;SDS_P2;PMS_P1;PMS_P2;Temp;Humidity;BMP_temperature;BMP_pressure;BME280_temperature;BME280_humidity;BME280_pressure;Samples;Min_cycle;Max_cycle;Signal;HPM_P1;HPM_P2
2023/10/24 00:01:23;;;;;;;9.70;6.05;;;15.00;99.90;;;;;;5049565;28;20047;-28
2023/10/24 00:03:49;;;;;;;10.25;5.72;;;15.00;99.90;;;;;;5050782;28;20496;-29
2023/10/24 00:06:15;;;;;;;8.43;5.75;;;14.90;99.90;;;;;;5048506;28;20037;-29
2023/10/24 00:08:42;;;;;;;10.40;6.88;;;;;;;;;;5050191;28;20155;-27
2023/10/24 00:11:08;;;;;;;9.63;6.78;;;15.00;99.90;;;;;;5048687;28;20044;-28
2023/10/24 00:13:33;;;;;;;9.55;6.35;;;15.10;99.90;;;;;;5049659;28;20032;-27
2023/10/24 00:16:00;;;;;;;9.70;6.40;;;;;;;;;;5051445;28;20645;-28
2023/10/24 00:18:26;;;;;;;10.40;6.30;;;;;;;;;;5047466;28;20098;-29
2023/10/24 00:20:52;;;;;;;9.35;6.05;;;;;;;;;;5047945;28;20124;-26
2023/10/24 00:23:18;;;;;;;11.85;7.25;;;14.80;99.90;;;;;;5048970;28;20090;-29
2023/10/24 00:25:44;;;;;;;9.63;6.47;;;14.90;99.90;;;;;;5049060;28;20128;-29
2023/10/24 00:28:10;;;;;;;12.45;6.70;;;14.80;99.90;;;;;;5049215;28;21090;-28
2023/10/24 00:30:36;;;;;;;12.02;7.32;;;14.90;99.90;;;;;;5050292;28;20045;-29
2023/10/24 00:33:02;;;;;;;11.27;6.88;;;14.90;99.90;;;;;;5032533;28;20056;-30
2023/10/24 00:35:28;;;;;;;11.38;6.55;;;14.80;99.90;;;;;;5050420;28;20102;-29
2023/10/24 00:37:53;;;;;;;10.38;6.55;;;14.90;99.90;;;;;;5045304;28;20057;-27
2023/10/24 00:40:19;;;;;;;9.18;5.90;;;14.90;99.90;;;;;;5050290;28;20045;-27
2023/10/24 00:42:45;;;;;;;11.48;6.50;;;;;;;;;;5042999;28;20081;-29
2023/10/24 00:45:11;;;;;;;10.75;6.15;;;14.80;99.90;;;;;;5050136;28;20040;-27
2023/10/24 00:47:40;;;;;;;10.18;6.47;;;15.20;95.00;;;;;;5048696;28;20566;-29
2023/10/24 00:50:07;;;;;;;10.05;6.40;;;;;;;;;;5051512;28;20408;-26
2023/10/24 00:52:34;;;;;;;11.20;6.20;;;;;;;;;;5051004;28;20041;-28
2023/10/24 00:55:00;;;;;;;11.65;7.22;;;;;;;;;;5049089;28;20246;-27
2023/10/24 00:57:26;;;;;;;9.90;6.05;;;;;;;;;;5049786;28;20044;-28
2023/10/24 00:59:53;;;;;;;10.77;6.40;;;;;;;;;;5049469;28;20140;-29
2023/10/24 01:02:19;;;;;;;10.20;6.28;;;;;;;;;;5048585;28;20041;-27
2023/10/24 01:04:46;;;;;;;11.48;7.00;;;;;;;;;;5048563;28;20087;-27
2023/10/24 01:07:11;;;;;;;10.13;6.20;;;14.70;99.90;;;;;;5047369;28;20048;-30
2023/10/24 01:09:37;;;;;;;11.43;6.18;;;15.00;99.90;;;;;;5049005;28;20381;-28
2023/10/24 01:12:03;;;;;;;10.52;6.43;;;;;;;;;;5047986;28;20044;-28
2023/10/24 01:14:29;;;;;;;12.82;6.60;;;14.80;99.90;;;;;;5049177;28;20044;-26
2023/10/24 01:16:55;;;;;;;10.93;6.40;;;;;;;;;;5047835;28;20037;-25
2023/10/24 01:19:22;;;;;;;9.98;6.53;;;;;;;;;;5047999;28;20033;-28
2023/10/24 01:21:47;;;;;;;11.63;6.65;;;14.70;99.90;;;;;;5047414;28;20496;-26
2023/10/24 01:24:14;;;;;;;12.65;6.57;;;;;;;;;;5048527;28;20087;-29
2023/10/24 01:26:41;;;;;;;12.20;6.15;;;14.80;99.90;;;;;;5042384;28;20037;-28
2023/10/24 01:29:07;;;;;;;12.57;6.25;;;14.70;99.90;;;;;;5046477;28;20048;-29
2023/10/24 01:31:33;;;;;;;11.23;6.85;;;;;;;;;;5048977;28;20025;-29
2023/10/24 01:33:58;;;;;;;11.45;6.30;;;14.70;99.90;;;;;;5046874;28;20037;-29
2023/10/24 01:36:24;;;;;;;9.25;6.32;;;14.80;99.90;;;;;;5045453;28;20042;-28
2023/10/24 01:38:49;;;;;;;10.93;6.85;;;14.70;99.90;;;;;;5048913;28;20052;-28
2023/10/24 01:41:15;;;;;;;11.15;8.00;;;14.80;99.90;;;;;;5029779;28;20044;-30
2023/10/24 01:43:41;;;;;;;9.45;6.20;;;14.50;99.90;;;;;;5049007;28;20028;-27
2023/10/24 01:46:07;;;;;;;10.52;6.40;;;;;;;;;;5048532;28;20079;-28
2023/10/24 01:48:33;;;;;;;10.23;7.03;;;;;;;;;;5048546;28;20029;-25
2023/10/24 01:50:59;;;;;;;11.73;6.90;;;;;;;;;;5047074;28;20041;-28
2023/10/24 01:53:24;;;;;;;10.13;7.38;;;14.70;99.90;;;;;;5039377;28;20116;-29
2023/10/24 01:55:53;;;;;;;10.20;6.50;;;;;;;;;;5049278;28;20120;-29
2023/10/24 01:58:19;;;;;;;11.00;7.43;;;;;;;;;;5051008;28;20428;-31
2023/10/24 02:00:45;;;;;;;10.65;6.70;;;;;;;;;;5052386;28;20064;-28
2023/10/24 02:03:14;;;;;;;9.80;6.40;;;15.10;99.90;;;;;;5051405;28;20554;-27
2023/10/24 02:05:40;;;;;;;10.15;6.40;;;14.60;99.90;;;;;;5052365;28;20575;-26
2023/10/24 02:08:05;;;;;;;10.63;7.05;;;14.70;99.90;;;;;;5050751;28;20112;-28
2023/10/24 02:10:31;;;;;;;9.90;7.03;;;14.80;99.90;;;;;;5056519;28;20029;-28
2023/10/24 02:12:56;;;;;;;9.98;6.70;;;14.80;99.90;;;;;;5047031;28;20385;-27
2023/10/24 02:15:23;;;;;;;11.65;7.07;;;;;;;;;;5047615;28;20086;-28
2023/10/24 02:17:49;;;;;;;10.20;6.18;;;;;;;;;;5047458;28;20080;-28
2023/10/24 02:20:15;;;;;;;10.57;6.80;;;14.70;99.90;;;;;;5047366;28;20440;-27
2023/10/24 02:22:40;;;;;;;10.70;6.68;;;14.80;99.90;;;;;;5056407;28;20067;-28
2023/10/24 02:25:10;;;;;;;9.50;6.55;;;;;;;;;;5043279;28;20498;-29
2023/10/24 02:27:38;;;;;;;10.32;5.90;;;14.80;99.90;;;;;;5054941;28;20036;-29
2023/10/24 02:30:04;;;;;;;9.45;6.38;;;14.70;99.90;;;;;;5062662;28;20051;-27
2023/10/24 02:32:30;;;;;;;10.18;6.63;;;15.10;99.90;;;;;;5065128;28;20033;-26
2023/10/24 02:34:55;;;;;;;9.68;6.68;;;14.50;99.90;;;;;;5059908;28;20389;-26
2023/10/24 02:37:21;;;;;;;9.90;6.75;;;14.70;99.90;;;;;;5058567;28;20505;-30
2023/10/24 02:39:46;;;;;;;8.90;6.20;;;14.80;99.90;;;;;;5051081;28;20034;-31
2023/10/24 02:42:12;;;;;;;9.52;6.47;;;14.70;99.90;;;;;;5058194;28;20082;-28
2023/10/24 02:44:38;;;;;;;10.45;6.55;;;;;;;;;;5060535;28;20044;-28
2023/10/24 02:47:04;;;;;;;9.05;5.57;;;;;;;;;;5059398;28;20497;-26
2023/10/24 02:49:33;;;;;;;9.20;5.80;;;14.10;99.90;;;;;;5060810;28;20487;-31
2023/10/24 02:51:58;;;;;;;9.02;5.90;;;14.60;99.90;;;;;;5051428;28;20044;-27
2023/10/24 02:54:25;;;;;;;9.38;5.68;;;;;;;;;;5055077;28;20119;-30
2023/10/24 02:56:51;;;;;;;7.97;5.40;;;;;;;;;;5049339;28;20741;-28
2023/10/24 02:59:17;;;;;;;9.30;5.90;;;;;;;;;;5053440;28;20083;-28
2023/10/24 03:01:43;;;;;;;7.85;5.60;;;;;;;;;;5068181;28;20072;-29
2023/10/24 03:04:08;;;;;;;8.57;5.25;;;14.90;99.90;;;;;;5058806;28;20037;-28
2023/10/24 03:06:34;;;;;;;8.73;5.88;;;14.60;99.90;;;;;;5057009;28;20083;-28
2023/10/24 03:09:00;;;;;;;11.57;5.38;;;14.60;99.90;;;;;;5059153;28;20048;-27
2023/10/24 03:11:26;;;;;;;8.25;5.20;;;14.90;99.90;;;;;;5059130;28;20045;-28
2023/10/24 03:13:52;;;;;;;7.57;4.93;;;;;;;;;;5053943;28;20033;-27
2023/10/24 03:16:18;;;;;;;8.35;5.55;;;14.70;99.90;;;;;;5049841;28;20053;-28
2023/10/24 03:18:44;;;;;;;8.95;5.40;;;;;;;;;;5051078;28;20045;-27
2023/10/24 03:21:10;;;;;;;8.57;5.30;;;14.70;99.90;;;;;;5049121;28;20514;-29
2023/10/24 03:23:36;;;;;;;8.13;5.30;;;14.80;99.90;;;;;;5057608;28;20463;-29
2023/10/24 03:26:06;;;;;;;7.95;4.75;;;;;;;;;;5048954;28;20065;-28
2023/10/24 03:28:32;;;;;;;6.75;4.40;;;14.60;99.90;;;;;;5049342;28;20068;-28
2023/10/24 03:31:05;;;;;;;7.25;4.80;;;;;;;;;;5047739;28;20037;-26
2023/10/24 03:33:31;;;;;;;7.45;4.50;;;14.50;99.90;;;;;;5057049;28;20428;-26
2023/10/24 03:35:57;;;;;;;7.18;4.40;;;;;;;;;;5054547;28;20453;-29
2023/10/24 03:38:24;;;;;;;6.53;3.92;;;14.60;99.90;;;;;;5056860;28;20069;-27
2023/10/24 03:40:50;;;;;;;7.20;4.38;;;14.70;99.90;;;;;;5050110;28;20041;-29
2023/10/24 03:43:16;;;;;;;7.30;3.78;;;14.60;99.90;;;;;;5056070;28;20037;-30
2023/10/24 03:45:42;;;;;;;8.10;4.13;;;14.60;99.90;;;;;;5050705;28;20400;-30
2023/10/24 03:48:08;;;;;;;6.72;3.97;;;14.80;99.90;;;;;;5039557;28;20045;-26
2023/10/24 03:50:38;;;;;;;7.35;4.25;;;;;;;;;;5048868;28;20044;-27
2023/10/24 03:53:04;;;;;;;6.70;3.97;;;;;;;;;;5049291;28;20033;-28
2023/10/24 03:55:30;;;;;;;6.88;4.28;;;14.70;99.90;;;;;;5047792;28;20037;-30
2023/10/24 03:57:59;;;;;;;6.55;3.97;;;;;;;;;;5052756;28;20050;-27
2023/10/24 04:00:26;;;;;;;6.63;3.88;;;;;;;;;;5048426;28;20053;-28
2023/10/24 04:02:56;;;;;;;6.10;3.75;;;14.70;99.90;;;;;;5056726;28;20052;-28
2023/10/24 04:05:21;;;;;;;7.25;4.22;;;14.80;99.90;;;;;;5060898;28;20037;-30
2023/10/24 04:07:47;;;;;;;7.30;4.13;;;15.00;99.90;;;;;;5057714;28;20043;-26
2023/10/24 04:10:14;;;;;;;6.85;4.22;;;14.70;99.90;;;;;;5049296;28;20116;-28
2023/10/24 04:12:40;;;;;;;8.15;4.28;;;14.70;99.90;;;;;;5055638;28;20029;-29
2023/10/24 04:15:07;;;;;;;7.18;4.05;;;14.80;99.90;;;;;;5062810;28;20044;-28
2023/10/24 04:17:33;;;;;;;7.25;4.38;;;14.70;99.90;;;;;;5057172;28;20040;-29
2023/10/24 04:19:59;;;;;;;7.88;4.70;;;14.80;99.90;;;;;;5055420;28;20093;-29
2023/10/24 04:22:24;;;;;;;7.60;5.00;;;14.70;99.90;;;;;;5060657;28;20041;-29
2023/10/24 04:24:50;;;;;;;7.50;4.68;;;14.30;99.90;;;;;;5051495;28;20045;-29
2023/10/24 04:27:19;;;;;;;6.75;4.32;;;14.60;99.90;;;;;;5055837;28;20037;-28
2023/10/24 04:29:46;;;;;;;7.78;4.32;;;14.60;99.90;;;;;;5058834;28;20036;-28
2023/10/24 04:32:12;;;;;;;8.82;4.90;;;;;;;;;;5060376;28;20563;-29
2023/10/24 04:34:38;;;;;;;7.07;4.28;;;14.70;99.90;;;;;;5049319;28;20033;-29
2023/10/24 04:37:04;;;;;;;8.80;5.13;;;;;;;;;;5055381;28;20033;-28
2023/10/24 04:39:30;;;;;;;7.85;4.38;;;;;;;;;;5055034;28;20554;-29
2023/10/24 04:41:56;;;;;;;9.82;4.80;;;;;;;;;;5054829;28;20041;-28
2023/10/24 04:44:22;;;;;;;14.07;6.70;;;;;;;;;;5042676;28;20086;-28
2023/10/24 04:46:56;;;;;;;18.58;6.93;;;15.30;99.90;;;;;;5050777;28;20041;-30
2023/10/24 04:49:40;;;;;;;27.40;10.02;;;14.80;99.90;;;;;;5050371;28;20028;-29
2023/10/24 04:52:06;;;;;;;31.15;7.65;;;;;;;;;;5046880;28;20508;-29
2023/10/24 04:54:33;;;;;;;21.83;8.77;;;;;;;;;;5050634;28;20057;-28
2023/10/24 04:57:00;;;;;;;19.98;7.72;;;15.10;99.90;;;;;;5041628;28;20037;-29
2023/10/24 04:59:27;;;;;;;18.25;7.22;;;15.00;99.90;;;;;;5037058;28;20041;-26
2023/10/24 05:01:54;;;;;;;22.35;6.60;;;;;;;;;;5021872;28;20212;-27
2023/10/24 05:04:23;;;;;;;14.88;6.65;;;;;;;;;;5033708;28;20134;-27
2023/10/24 05:06:48;;;;;;;14.60;5.40;;;15.00;99.90;;;;;;5051454;28;20170;-28
2023/10/24 05:09:16;;;;;;;11.30;4.50;;;14.80;99.90;;;;;;5029708;28;20112;-29
2023/10/24 05:11:44;;;;;;;15.85;5.03;;;15.50;99.90;;;;;;5040325;28;20044;-30
2023/10/24 05:14:10;;;;;;;11.07;4.47;;;15.50;99.90;;;;;;5046367;28;20425;-30
2023/10/24 05:16:37;;;;;;;7.85;4.82;;;;;;;;;;5045313;28;20041;-30
2023/10/24 05:19:03;;;;;;;8.65;5.20;;;15.10;99.90;;;;;;5057927;28;20094;-28
2023/10/24 05:21:29;;;;;;;8.63;5.00;;;15.20;99.90;;;;;;5052066;28;20037;-28
2023/10/24 05:23:54;;;;;;;8.23;4.45;;;15.20;99.90;;;;;;5049286;28;20570;-29
2023/10/24 05:26:20;;;;;;;8.23;5.28;;;15.00;99.90;;;;;;5050166;28;20045;-28
2023/10/24 05:28:47;;;;;;;8.07;5.35;;;;;;;;;;5042872;28;20108;-30
2023/10/24 05:31:13;;;;;;;8.32;5.20;;;;;;;;;;5046737;28;20033;-29
2023/10/24 05:33:39;;;;;;;7.88;5.72;;;;;;;;;;5047361;28;20044;-29
2023/10/24 05:36:06;;;;;;;8.45;5.82;;;;;;;;;;5081272;28;20099;-27
2023/10/24 05:38:35;;;;;;;10.15;6.50;;;15.20;99.90;;;;;;5051560;28;20538;-28
2023/10/24 05:41:02;;;;;;;7.88;5.88;;;15.00;99.90;;;;;;5051740;28;20045;-28
2023/10/24 05:43:28;;;;;;;8.65;6.28;;;15.00;99.90;;;;;;5054963;28;20404;-27
2023/10/24 05:45:54;;;;;;;8.10;6.07;;;;;;;;;;5059198;28;20037;-28
2023/10/24 05:48:21;;;;;;;8.63;5.95;;;;;;;;;;5053179;28;20045;-28
2023/10/24 05:50:47;;;;;;;8.93;5.93;;;14.80;99.90;;;;;;5042350;28;20106;-29
2023/10/24 05:53:12;;;;;;;8.95;6.28;;;14.90;99.90;;;;;;5045508;28;20033;-29
2023/10/24 05:55:40;;;;;;;9.90;5.90;;;15.00;99.90;;;;;;5047980;28;20131;-29
2023/10/24 05:58:05;;;;;;;8.50;5.78;;;15.10;99.90;;;;;;5058054;28;20070;-28
2023/10/24 06:00:33;;;;;;;8.02;6.35;;;15.00;99.90;;;;;;5056894;28;20541;-30
2023/10/24 06:02:59;;;;;;;7.88;5.95;;;;;;;;;;5056406;28;20053;-31
2023/10/24 06:05:25;;;;;;;7.43;5.32;;;15.30;99.90;;;;;;5049318;28;20055;-29
2023/10/24 06:07:51;;;;;;;8.13;5.78;;;;;;;;;;5065731;28;20041;-28
2023/10/24 06:10:17;;;;;;;10.13;6.13;;;;;;;;;;5059975;28;20041;-29
2023/10/24 06:12:43;;;;;;;8.25;5.53;;;;;;;;;;5059265;28;20074;-28
2023/10/24 06:15:10;;;;;;;8.18;6.13;;;15.00;99.90;;;;;;5059448;28;20036;-30
2023/10/24 06:17:38;;;;;;;8.75;5.82;;;15.00;99.90;;;;;;5056945;28;20079;-28
2023/10/24 06:20:04;;;;;;;7.60;6.18;;;15.00;99.90;;;;;;5060386;28;20078;-27
2023/10/24 06:22:32;;;;;;;8.05;6.10;;;;;;;;;;5052416;28;20068;-29
2023/10/24 06:24:58;;;;;;;8.68;5.88;;;;;;;;;;5060667;28;20124;-29
2023/10/24 06:27:23;;;;;;;8.07;5.82;;;15.10;99.90;;;;;;5054160;28;20052;-29
2023/10/24 06:29:50;;;;;;;9.43;5.90;;;15.10;99.90;;;;;;5056894;28;20124;-28
2023/10/24 06:32:16;;;;;;;7.38;5.43;;;;;;;;;;5058530;28;20263;-28
2023/10/24 06:34:42;;;;;;;8.23;5.95;;;15.10;99.90;;;;;;5055802;28;20037;-28
2023/10/24 06:37:07;;;;;;;10.13;5.85;;;15.10;99.90;;;;;;5056771;28;20332;-27
2023/10/24 06:39:33;;;;;;;9.63;6.28;;;15.10;99.90;;;;;;5048385;28;20060;-29
2023/10/24 06:41:59;;;;;;;8.10;5.50;;;15.10;99.90;;;;;;5051271;28;20496;-27
2023/10/24 06:44:26;;;;;;;8.25;6.05;;;;;;;;;;5050310;28;20037;-31
2023/10/24 06:46:52;;;;;;;7.97;5.85;;;15.10;99.90;;;;;;5052421;28;20051;-29
2023/10/24 06:49:18;;;;;;;8.05;5.85;;;14.90;99.90;;;;;;5053384;28;20044;-27
2023/10/24 06:51:43;;;;;;;8.13;5.25;;;15.10;99.90;;;;;;5057490;28;20128;-28
2023/10/24 06:54:09;;;;;;;8.52;5.20;;;14.60;99.90;;;;;;5047564;28;20606;-29
2023/10/24 06:56:35;;;;;;;7.57;5.35;;;15.60;99.90;;;;;;5039799;28;20048;-31
2023/10/24 06:59:00;;;;;;;7.15;4.88;;;15.00;99.90;;;;;;5054253;28;20472;-29
2023/10/24 07:01:26;;;;;;;8.52;4.75;;;;;;;;;;5043649;28;20120;-29
2023/10/24 07:03:54;;;;;;;9.25;4.97;;;15.20;99.90;;;;;;5024953;28;20128;-27
2023/10/24 07:06:20;;;;;;;6.78;4.78;;;;;;;;;;5031349;28;20579;-28
2023/10/24 07:08:48;;;;;;;8.75;5.13;;;15.10;99.90;;;;;;5051214;28;20146;-29
2023/10/24 07:11:14;;;;;;;8.68;4.72;;;15.00;99.90;;;;;;5044454;28;20494;-28
2023/10/24 07:13:40;;;;;;;6.55;4.32;;;14.90;99.90;;;;;;5050755;28;20111;-29
2023/10/24 07:16:15;;;;;;;7.22;4.28;;;;;;;;;;5029273;28;20091;-28
2023/10/24 07:18:42;;;;;;;6.07;3.80;;;15.00;99.90;;;;;;5048235;28;20116;-27
2023/10/24 07:21:08;;;;;;;6.65;4.40;;;15.10;99.90;;;;;;5045891;28;20041;-28
2023/10/24 07:23:34;;;;;;;8.32;4.32;;;15.40;99.90;;;;;;5050130;28;20051;-29
2023/10/24 07:26:00;;;;;;;6.30;3.75;;;;;;;;;;5047816;28;20501;-28
2023/10/24 07:28:26;;;;;;;6.43;4.05;;;15.10;99.90;;;;;;5051519;28;20037;-28
2023/10/24 07:30:54;;;;;;;6.40;3.70;;;15.00;99.90;;;;;;5051387;28;20443;-27
2023/10/24 07:33:20;;;;;;;6.55;3.88;;;14.90;99.90;;;;;;5047250;28;20044;-29
2023/10/24 07:35:48;;;;;;;6.57;3.97;;;15.00;99.90;;;;;;5056219;28;20037;-27
2023/10/24 07:38:14;;;;;;;7.22;4.22;;;;;;;;;;5044764;28;20037;-29
2023/10/24 07:40:40;;;;;;;12.27;4.47;;;;;;;;;;5047233;28;20033;-28
2023/10/24 07:43:07;;;;;;;6.45;4.28;;;;;;;;;;5043144;28;20029;-28
2023/10/24 07:45:33;;;;;;;6.90;4.25;;;14.90;99.90;;;;;;5048346;28;20044;-28
2023/10/24 07:48:01;;;;;;;8.07;4.55;;;;;;;;;;5043383;28;20033;-27
2023/10/24 07:50:31;;;;;;;7.97;4.72;;;14.90;99.90;;;;;;5041526;28;20405;-29
2023/10/24 07:52:56;;;;;;;7.95;4.75;;;15.00;99.90;;;;;;5048199;28;20033;-31
2023/10/24 07:55:23;;;;;;;7.95;4.60;;;;;;;;;;5044891;28;20116;-30
2023/10/24 07:57:51;;;;;;;7.93;5.32;;;15.00;99.90;;;;;;5078976;28;20048;-28
2023/10/24 08:00:17;;;;;;;8.60;5.47;;;15.10;99.90;;;;;;5047441;28;20055;-29
2023/10/24 08:02:43;;;;;;;8.10;4.85;;;;;;;;;;5046573;28;20245;-28
2023/10/24 08:05:12;;;;;;;8.00;5.45;;;;;;;;;;5050874;28;20403;-30
2023/10/24 08:07:38;;;;;;;9.88;5.95;;;15.00;99.90;;;;;;5047697;28;20033;-28
2023/10/24 08:10:05;;;;;;;8.88;5.60;;;15.20;99.90;;;;;;5045714;28;20380;-27
2023/10/24 08:12:33;;;;;;;9.27;5.18;;;;;;;;;;5044244;28;20037;-30
2023/10/24 08:14:59;;;;;;;8.75;5.60;;;15.00;99.90;;;;;;5042946;28;20045;-29
2023/10/24 08:17:25;;;;;;;9.93;6.13;;;14.90;99.90;;;;;;5050748;28;20563;-30
2023/10/24 08:19:50;;;;;;;9.48;6.30;;;15.20;99.90;;;;;;5051724;28;20043;-26
2023/10/24 08:22:16;;;;;;;11.77;6.85;;;14.90;99.90;;;;;;5047964;28;20040;-30
2023/10/24 08:24:41;;;;;;;10.10;7.70;;;15.00;99.90;;;;;;5047679;28;20082;-28
2023/10/24 08:27:08;;;;;;;9.98;6.22;;;;;;;;;;5048843;28;20029;-27
2023/10/24 08:29:33;;;;;;;9.52;6.43;;;14.90;99.90;;;;;;5042002;28;20381;-29
2023/10/24 08:31:59;;;;;;;10.18;6.43;;;14.90;99.90;;;;;;5046356;28;20085;-26
2023/10/24 08:34:25;;;;;;;9.93;6.72;;;15.00;99.90;;;;;;5044653;28;20037;-29
2023/10/24 08:36:51;;;;;;;10.82;6.78;;;14.90;99.90;;;;;;5042813;28;20516;-28
2023/10/24 08:39:21;;;;;;;9.75;6.57;;;14.90;99.90;;;;;;5045577;28;20037;-28
2023/10/24 08:41:48;;;;;;;10.73;6.90;;;;;;;;;;5043635;28;20084;-31
2023/10/24 08:44:16;;;;;;;12.73;8.23;;;;;;;;;;5046949;28;20162;-28
2023/10/24 08:46:41;;;;;;;10.30;7.70;;;15.00;99.90;;;;;;5041234;28;20041;-28
2023/10/24 08:49:08;;;;;;;11.30;8.02;;;15.50;99.90;;;;;;5053248;28;20044;-30
2023/10/24 08:51:34;;;;;;;11.25;7.60;;;15.00;99.90;;;;;;5046796;28;20130;-28
2023/10/24 08:54:00;;;;;;;12.77;8.52;;;;;;;;;;5049559;28;20025;-29
2023/10/24 08:56:27;;;;;;;12.52;8.48;;;15.00;99.90;;;;;;5042240;28;20484;-28
2023/10/24 08:58:55;;;;;;;11.32;8.10;;;;;;;;;;5046626;28;20427;-31
2023/10/24 09:01:21;;;;;;;12.23;8.18;;;14.90;99.90;;;;;;5041943;28;20053;-29
2023/10/24 09:03:47;;;;;;;13.45;9.30;;;;;;;;;;5045208;28;20176;-31
2023/10/24 09:06:13;;;;;;;13.77;9.70;;;;;;;;;;5048509;28;20115;-28
2023/10/24 09:08:39;;;;;;;12.65;9.20;;;15.00;99.90;;;;;;5045589;28;20104;-27
2023/10/24 09:11:05;;;;;;;13.05;8.90;;;;;;;;;;5045646;28;20413;-25
2023/10/24 09:13:34;;;;;;;11.30;8.38;;;;;;;;;;5041482;28;20037;-29
2023/10/24 09:16:09;;;;;;;12.02;8.82;;;14.60;99.90;;;;;;5050005;28;20059;-28
2023/10/24 09:18:36;;;;;;;11.82;8.82;;;15.10;99.90;;;;;;5038175;28;20087;-30
2023/10/24 09:21:04;;;;;;;11.27;8.48;;;14.90;99.90;;;;;;5044622;28;20040;-29
2023/10/24 09:23:32;;;;;;;9.23;5.88;;;15.20;99.90;;;;;;5027696;28;20037;-28
2023/10/24 09:26:01;;;;;;;8.45;3.65;;;;;;;;;;5043578;28;20038;-28
2023/10/24 09:28:29;;;;;;;9.82;6.18;;;14.50;99.90;;;;;;5048142;28;20047;-28
2023/10/24 09:30:57;;;;;;;9.98;5.07;;;15.10;99.90;;;;;;5041629;28;20037;-24
2023/10/24 09:33:29;;;;;;;8.95;4.78;;;;;;;;;;5049445;28;20041;-25
2023/10/24 09:36:01;;;;;;;10.73;5.55;;;15.10;99.90;;;;;;5051754;28;20551;-24
2023/10/24 09:38:29;;;;;;;10.80;7.45;;;;;;;;;;5049526;28;20045;-25
2023/10/24 09:40:56;;;;;;;11.68;7.63;;;14.40;99.90;;;;;;5049240;28;20040;-25
2023/10/24 09:43:27;;;;;;;12.60;8.63;;;;;;;;;;5050444;28;20033;-25
2023/10/24 09:45:54;;;;;;;10.43;7.80;;;;;;;;;;5049618;28;20064;-24
2023/10/24 09:48:24;;;;;;;13.77;8.50;;;;;;;;;;5052236;28;20048;-23
2023/10/24 09:50:54;;;;;;;10.43;6.85;;;15.00;99.90;;;;;;5048183;28;20040;-25
2023/10/24 09:53:24;;;;;;;10.52;7.68;;;;;;;;;;5048836;28;20041;-26
2023/10/24 09:55:56;;;;;;;10.77;7.72;;;15.40;99.90;;;;;;5043772;28;20041;-25
2023/10/24 09:58:24;;;;;;;10.25;6.90;;;;;;;;;;5049031;28;20119;-25
2023/10/24 10:00:50;;;;;;;12.25;7.70;;;15.10;99.90;;;;;;5045000;28;20120;-25
2023/10/24 10:03:19;;;;;;;10.27;7.28;;;15.10;99.90;;;;;;5046687;28;20033;-25
2023/10/24 10:05:50;;;;;;;10.77;7.53;;;15.00;99.90;;;;;;5051844;28;20048;-25
2023/10/24 10:08:17;;;;;;;8.05;4.30;;;;;;;;;;5049240;28;20024;-25
2023/10/24 10:10:46;;;;;;;9.27;6.45;;;14.90;99.90;;;;;;5046025;28;20038;-25
2023/10/24 10:13:26;;;;;;;9.90;7.57;;;14.90;99.90;;;;;;5046938;28;20044;-25
2023/10/24 10:16:02;;;;;;;11.60;7.47;;;;;;;;;;5043350;28;20045;-25
2023/10/24 10:18:43;;;;;;;8.07;5.18;;;15.30;99.90;;;;;;5038413;28;20492;-25
2023/10/24 10:21:18;;;;;;;9.27;6.82;;;;;;;;;;5048199;28;20044;-25
2023/10/24 10:24:08;;;;;;;11.50;7.05;;;15.10;99.90;;;;;;5044773;28;20037;-25
2023/10/24 10:26:46;;;;;;;10.63;7.10;;;;;;;;;;5043191;28;20044;-25
2023/10/24 10:29:18;;;;;;;7.00;4.45;;;;;;;;;;5044903;28;20042;-25
2023/10/24 10:32:09;;;;;;;9.35;5.93;;;;;;;;;;5044615;28;20035;-24
2023/10/24 10:34:37;;;;;;;8.82;4.80;;;16.00;99.90;;;;;;5041613;28;20108;-25
2023/10/24 10:37:11;;;;;;;7.13;4.38;;;;;;;;;;5044742;28;20041;-25
2023/10/24 10:39:37;;;;;;;9.13;5.47;;;15.00;99.90;;;;;;5046780;28;20044;-25
2023/10/24 10:42:02;;;;;;;8.25;5.55;;;15.20;99.90;;;;;;5046592;28;20041;-25
2023/10/24 10:44:38;;;;;;;7.07;4.50;;;14.70;99.90;;;;;;5044497;28;20040;-25
2023/10/24 10:47:08;;;;;;;7.88;4.93;;;;;;;;;;5039576;28;20556;-25
2023/10/24 10:49:56;;;;;;;7.72;4.63;;;;;;;;;;5044343;28;20037;-26
2023/10/24 10:52:48;;;;;;;7.15;4.15;;;14.70;99.90;;;;;;5044487;28;20037;-26
2023/10/24 10:55:40;;;;;;;7.00;4.53;;;15.90;99.90;;;;;;5044682;28;20063;-25
2023/10/24 10:58:31;;;;;;;8.38;5.03;;;14.80;99.90;;;;;;5049945;28;20048;-25
2023/10/24 11:01:16;;;;;;;6.78;3.97;;;15.70;99.90;;;;;;5049949;28;20037;-26
2023/10/24 11:03:43;;;;;;;7.15;4.20;;;;;;;;;;5048059;28;20400;-26
2023/10/24 11:06:16;;;;;;;7.97;4.28;;;;;;;;;;5053078;28;20041;-25
2023/10/24 11:09:09;;;;;;;6.47;4.13;;;;;;;;;;5049848;28;20036;-26
2023/10/24 11:11:37;;;;;;;8.55;5.75;;;15.20;99.90;;;;;;5046006;28;20408;-26
2023/10/24 11:14:21;;;;;;;8.32;4.57;;;14.70;99.90;;;;;;5052509;28;20095;-25
2023/10/24 11:16:48;;;;;;;7.23;4.97;;;15.20;99.90;;;;;;5051084;28;20553;-25
2023/10/24 11:19:24;;;;;;;7.75;5.63;;;;;;;;;;5050577;28;20044;-26
2023/10/24 11:21:54;;;;;;;8.20;5.80;;;15.10;99.90;;;;;;5050303;28;20412;-25
2023/10/24 11:24:24;;;;;;;8.75;6.32;;;;;;;;;;5049697;28;21677;-26
2023/10/24 11:26:56;;;;;;;9.05;6.07;;;;;;;;;;5049686;28;20424;-25
2023/10/24 11:29:25;;;;;;;9.80;7.10;;;14.70;99.90;;;;;;5050822;28;20123;-27
2023/10/24 11:31:50;;;;;;;8.40;6.22;;;15.40;99.90;;;;;;5044750;28;20037;-26
2023/10/24 11:34:17;;;;;;;7.88;4.82;;;15.20;99.90;;;;;;5040822;28;20392;-25
2023/10/24 11:36:44;;;;;;;8.77;5.63;;;14.90;99.90;;;;;;5040632;28;20049;-25
2023/10/24 11:39:14;;;;;;;7.10;5.00;;;;;;;;;;5044101;28;20029;-25
2023/10/24 11:41:40;;;;;;;7.65;5.32;;;15.30;99.90;;;;;;5040336;28;20389;-25
2023/10/24 11:44:07;;;;;;;8.85;6.18;;;15.70;99.90;;;;;;5041524;28;20523;-25
2023/10/24 11:46:37;;;;;;;9.25;7.03;;;15.70;99.90;;;;;;5036354;28;20116;-26
2023/10/24 11:49:02;;;;;;;10.57;7.57;;;15.10;99.90;;;;;;5041021;28;20078;-25
2023/10/24 11:51:30;;;;;;;10.57;6.72;;;;;;;;;;5040816;28;20049;-26
2023/10/24 11:54:02;;;;;;;8.63;6.38;;;15.80;99.90;;;;;;5041969;28;20059;-26
2023/10/24 11:56:29;;;;;;;9.02;6.20;;;15.30;99.90;;;;;;5036363;28;20052;-25
2023/10/24 11:58:55;;;;;;;9.20;6.07;;;15.10;99.90;;;;;;5044437;28;20397;-26
2023/10/24 12:01:27;;;;;;;8.55;5.72;;;15.00;99.90;;;;;;5040054;28;20140;-25
2023/10/24 12:03:59;;;;;;;11.05;6.22;;;15.10;99.90;;;;;;5038219;28;20405;-26
2023/10/24 12:06:28;;;;;;;9.07;6.47;;;15.20;99.90;;;;;;5041685;28;20067;-26
2023/10/24 12:08:54;;;;;;;8.82;5.53;;;15.10;99.90;;;;;;5042836;28;20164;-24
2023/10/24 12:11:22;;;;;;;9.18;4.85;;;;;;;;;;5036756;28;21345;-25
2023/10/24 12:13:49;;;;;;;6.25;3.92;;;15.30;99.90;;;;;;5036448;28;20422;-25
2023/10/24 12:16:15;;;;;;;7.30;4.13;;;15.30;99.90;;;;;;5040402;28;20049;-25
2023/10/24 12:18:57;;;;;;;9.57;6.18;;;15.40;99.90;;;;;;5037375;28;20032;-26
2023/10/24 12:21:26;;;;;;;8.98;5.95;;;15.50;99.90;;;;;;5042892;28;20500;-26
2023/10/24 12:23:51;;;;;;;7.80;5.95;;;15.00;99.90;;;;;;5033053;28;20120;-25
2023/10/24 12:26:20;;;;;;;8.73;6.40;;;15.00;99.90;;;;;;5044116;28;20208;-25
2023/10/24 12:28:47;;;;;;;10.00;6.13;;;15.30;99.90;;;;;;5035626;28;20063;-25
2023/10/24 12:31:16;;;;;;;8.93;6.18;;;15.10;99.90;;;;;;5052063;28;20045;-25
2023/10/24 12:33:48;;;;;;;8.70;6.25;;;15.20;99.90;;;;;;5038481;28;20485;-25
2023/10/24 12:36:20;;;;;;;9.15;5.75;;;;;;;;;;5039737;28;20041;-24
2023/10/24 12:38:46;;;;;;;9.20;5.68;;;15.10;99.90;;;;;;5040649;28;20068;-26
2023/10/24 12:41:17;;;;;;;7.38;5.20;;;15.20;99.90;;;;;;5036508;28;20037;-25
2023/10/24 12:43:43;;;;;;;8.18;5.53;;;15.30;99.90;;;;;;5051323;28;20045;-26
2023/10/24 12:46:08;;;;;;;6.60;5.00;;;15.30;99.90;;;;;;5036284;28;20144;-25
2023/10/24 12:48:55;;;;;;;6.75;4.35;;;;;;;;;;5057142;28;20037;-25
2023/10/24 12:51:20;;;;;;;7.88;4.75;;;15.20;99.90;;;;;;5037069;28;20109;-25
2023/10/24 12:53:49;;;;;;;7.10;5.07;;;15.20;99.90;;;;;;5054092;28;20029;-24
2023/10/24 12:56:23;;;;;;;8.27;4.78;;;15.20;99.90;;;;;;5044051;28;20083;-25
2023/10/24 12:58:54;;;;;;;7.22;4.93;;;15.20;99.90;;;;;;5049280;28;20076;-26
2023/10/24 13:01:24;;;;;;;8.55;5.47;;;15.10;99.90;;;;;;5055156;28;20496;-26
2023/10/24 13:03:53;;;;;;;7.50;5.53;;;15.10;99.90;;;;;;5052702;28;20454;-25
2023/10/24 13:06:19;;;;;;;7.20;4.00;;;;;;;;;;5056428;28;20052;-26
2023/10/24 13:08:45;;;;;;;8.35;4.90;;;15.20;99.90;;;;;;5059991;28;20070;-25
2023/10/24 13:11:18;;;;;;;10.57;5.53;;;14.90;99.90;;;;;;5047138;28;20041;-26
2023/10/24 13:13:50;;;;;;;8.18;4.57;;;16.00;99.90;;;;;;5054694;28;20033;-25
2023/10/24 13:16:18;;;;;;;6.20;3.67;;;15.20;99.90;;;;;;5055393;28;20075;-26
2023/10/24 13:18:44;;;;;;;7.45;5.55;;;15.00;99.90;;;;;;5054225;28;20492;-25
2023/10/24 13:21:10;;;;;;;8.95;5.53;;;;;;;;;;5051343;28;20041;-25
2023/10/24 13:23:36;;;;;;;8.10;5.07;;;;;;;;;;5050231;28;20044;-25